Ride Results

North Motton (04-07-2015)
Ride distance: 80.0 km

Outcomes - North Motton (04-07-2015)
Division No. of Entries Retired / DNE Completed Withdrawn Ineligible V/O Percentage Completed
HW 9 - 4 2 - 3 44.44%
MW 13 - 11 - - 2 84.62%
LW 11 - 8 1 - 2 72.73%
JN 8 - 8 - - - 100.00%
Totals 41 - 31 3 - 7 75.61%
Results - North Motton (04-07-2015)
No. Rider Horse Place Time Leg Speeds Total
Km/Hr
H/R bpm
Heavyweight
122 Ged Nicklason Wongawol Legend 1 (BC) 6:23:15 13.6, 11.5 12.52 33, 44, 50 (Avg:47)
185 Dale Press Dat Murphy 2 6:33:20 12.4, 11.9 12.20 34, 47, 52 (Avg:49)
22 Helen Astell Maximum Impact 3 7:58:40 10.1, 9.9 10.03 34, 50, 54 (Avg:52)
212 Jan Lewin Rokewood Calgary 4 8:11:30 10.0, 9.4 9.77 42, 47, 59 (Avg:53)
137 John Shoobridge Tex Heart Rate L2 0:00:00 12.5, 11.7 - 36, 44, 68 (Avg:56)
166 Craig Wilson Stellar Express Heart Rate L2 0:00:00 15.0, 11.3 - 37, 50, 65 (Avg:57)
18 Sheleah Astell Christmas Lights Withdrawn L1 0:00:00 - - 29, 53 (Avg:53)
82 Mark Dunn Calypso Heart Rate L1 0:00:00 11.2 - 30, 58 (Avg:58)
g Greg Henry Bellawongarah Beau Withdrawn L1 0:00:00 - - 46, 52 (Avg:52)
Middleweight
101 Wendy Rand Diablo 1 (BC) 5:15:20 16.8, 13.9 15.22 28, 41, 48 (Avg:44)
57 Tania Jago Undurra Max 2 6:11:24 15.0, 11.3 12.92 37, 43, 55 (Avg:49)
50 Joanne Marshall Rivergum Windchime 3 6:14:24 12.8, 12.7 12.82 41, 49, 55 (Avg:52)
114 Tara Nicklason Wattlelea Zaharra 4 6:23:09 13.6, 11.5 12.53 33, 45, 58 (Avg:51)
142 Shayne Williams Shayelle Sienna 5 6:23:32 13.1, 11.9 12.52 37, 47, 58 (Avg:52)
38 Tony Purton Beer Street Lizzy B 6 7:32:40 11.4, 9.8 10.60 31, 42, 45 (Avg:43)
136 Kaye Mitchell Beer Street Dezhda 7 7:32:41 11.4, 9.8 10.60 32, 42, 40 (Avg:41)
76 Karin Morris Rivergum Skye 8 7:55:20 11.2, 9.1 10.10 35, 43, 53 (Avg:48)
182 Fran Jordan Follydown Mystify (au) 9 7:55:22 11.2, 9.1 10.10 36, 40, 49 (Avg:44)
179 Debbie Grull Ben 10 8:10:31 10.0, 9.4 9.79 55, 41, 52 (Avg:46)
271 Jessie Herman DVS Sienna 11 8:10:32 10.0, 9.4 9.79 30, 44, 59 (Avg:51)
32 Donna Wall Pevensey Zain Lame L2 0:00:00 13.1, 11.9 - 33, 48, 57 (Avg:52)
253 Kelly Woodhouse Malricia Nato Heart Rate L1 0:00:00 10.7 - 35, 67 (Avg:67)
Lightweight
12 Anita Hutchins Ace of Moravian 1 (BC) 6:42:30 11.9, 11.8 11.93 42, 45, 54 (Avg:49)
305 Julie Carter Cameo Arpeggio 2 7:46:50 9.9, 10.6 10.28 35, 43, 51 (Avg:47)
100 Trish Smith Beaucheval Akhiran 3 7:54:18 10.1, 10.0 10.12 29, 46, 57 (Avg:51)
115 Jenny Keygan Woodsong Kasanova 4 7:55:21 11.2, 9.1 10.10 37, 49, 57 (Avg:53)
125 Brooke Brown-Cordell Vandieman Tyra 5 7:58:42 10.0, 9.9 10.03 35, 44, 45 (Avg:44)
281 Christal Rizk Seajay Heaven's Rose 6 7:58:43 10.1, 9.9 10.03 48, 49, 56 (Avg:52)
90 Angela Hawks Karabah Tully 7 8:14:00 9.1, 10.3 9.72 34, 51, 60 (Avg:55)
29 Kristy Keep Samson of Glendhu 7 8:14:00 10.2, 9.2 9.72 31, 49, 60 (Avg:54)
191 Yuki Nishikido Atiya FA Lame L2 0:00:00 10.0, 9.4 - 27, 47, 37 (Avg:42)
74 Felicity Perry Endel el Palas Lame L2 0:00:00 11.9, 10.3 - 28, 45, 49 (Avg:47)
55 Jane Stratton Bellawongarah Sweet Riaality Withdrawn L1 0:00:00 - - 33, 40 (Avg:40)
Junior
129 Kirsty Sward Woodsong Zadonk 1 (BC) 6:35:12 12.0, 12.2 12.15 36, 43, 49 (Avg:46)
127 Jaz Hutchins Malricia Bridget 2 6:42:30 11.9, 11.8 11.93 38, 45, 49 (Avg:47)
292 Holli Anthony OToole Dream Catcher Te 3 7:44:30 10.7, 9.9 10.33 36, 40, 51 (Avg:45)
308 Ella Carter Envios 4 7:46:51 9.9, 10.6 10.28 37, 44, 47 (Avg:45)
289 David Anderson Jnr BBP Pocahontus 5 7:58:41 10.0, 9.9 10.03 37, 46, 54 (Avg:50)
157 Bella Pickering Vandieman Trojen 6 7:59:30 15.5, 7.3 10.01 36, 48, 51 (Avg:49)
209 Grace Huxtable Bacardi 7 8:14:00 10.2, 9.2 9.72 33, 47, 52 (Avg:49)
92 Kandy Whiley Santanova 7 8:14:00 9.1, 10.3 9.72 30, 43, 51 (Avg:47)